Time;durP1;ratioP1;P1;durP2;ratioP2;P2;SDS_P1;SDS_P2;PMS_P1;PMS_P2;Temp;Humidity;BMP_temperature;BMP_pressure;BME280_temperature;BME280_humidity;BME280_pressure;Samples;Min_cycle;Max_cycle;Signal;HPM_P1;HPM_P2
2021/12/29 00:00:24;;;;;;;12.40;1.73;;;;;;;;;;5034087;28;20049;-63
2021/12/29 00:02:51;;;;;;;10.00;1.52;;;;;;;;;;5033897;28;20060;-63
2021/12/29 00:05:18;;;;;;;9.35;1.70;;;;;;;;;;5033934;28;20506;-63
2021/12/29 00:07:45;;;;;;;6.20;1.48;;;;;;;;;;5033678;28;20050;-63
2021/12/29 00:10:15;;;;;;;8.02;1.27;;;;;;;;;;5033804;28;20057;-63
2021/12/29 00:12:46;;;;;;;7.65;1.45;;;;;;;;;;5033760;28;20149;-63
2021/12/29 00:15:15;;;;;;;5.22;1.20;;;;;;;;;;5034130;28;20062;-63
2021/12/29 00:17:45;;;;;;;7.38;1.17;;;;;;;;;;5033877;28;20494;-63
2021/12/29 00:20:14;;;;;;;6.40;1.77;;;;;;;;;;5033768;28;20384;-63
2021/12/29 00:22:41;;;;;;;7.68;1.35;;;;;;;;;;5033550;28;20045;-63
2021/12/29 00:25:08;;;;;;;4.80;1.17;;;;;;;;;;5033808;28;20045;-63
2021/12/29 00:27:36;;;;;;;5.15;1.48;;;;;;;;;;5033402;28;20057;-63
2021/12/29 00:30:05;;;;;;;5.03;1.58;;;;;;;;;;5033493;28;20060;-63
2021/12/29 00:32:31;;;;;;;5.18;1.52;;;;;;;;;;5033526;28;20049;-63
2021/12/29 00:35:00;;;;;;;6.80;1.38;;;;;;;;;;5033216;28;20339;-63
2021/12/29 00:37:27;;;;;;;7.63;1.83;;;;;;;;;;5033360;28;20141;-63
2021/12/29 00:39:54;;;;;;;6.30;1.50;;;;;;;;;;5033239;28;20143;-63
2021/12/29 00:42:21;;;;;;;9.68;1.70;;;;;;;;;;5033136;28;20045;-63
2021/12/29 00:44:50;;;;;;;5.68;1.10;;;;;;;;;;5033033;28;20053;-63
2021/12/29 00:47:17;;;;;;;3.78;1.30;;;;;;;;;;5033001;28;20093;-63
2021/12/29 00:49:46;;;;;;;6.28;1.48;;;;;;;;;;5032957;28;20052;-63
2021/12/29 00:52:14;;;;;;;5.78;1.27;;;;;;;;;;5033471;28;20549;-63
2021/12/29 00:54:44;;;;;;;3.75;1.02;;;;;;;;;;5033123;28;20041;-63
2021/12/29 00:57:11;;;;;;;4.75;1.38;;;;;;;;;;5033064;28;20107;-63
2021/12/29 00:59:38;;;;;;;7.90;1.40;;;;;;;;;;5032976;28;20049;-63
2021/12/29 01:02:05;;;;;;;4.85;1.00;;;;;;;;;;5033257;28;20402;-63
2021/12/29 01:04:33;;;;;;;5.22;1.40;;;;;;;;;;5032944;28;20054;-63
2021/12/29 01:07:00;;;;;;;5.63;1.27;;;;;;;;;;5032862;28;20498;-63
2021/12/29 01:09:28;;;;;;;8.70;1.30;;;;;;;;;;5032505;28;20052;-63
2021/12/29 01:11:57;;;;;;;6.97;1.17;;;;;;;;;;5032742;28;20355;-63
2021/12/29 01:14:25;;;;;;;5.35;1.15;;;;;;;;;;5032460;28;20093;-63
2021/12/29 01:16:53;;;;;;;7.70;1.42;;;;;;;;;;5032899;28;20068;-63
2021/12/29 01:19:22;;;;;;;6.93;1.10;;;;;;;;;;5032294;28;20050;-63
2021/12/29 01:21:51;;;;;;;4.97;0.80;;;;;;;;;;5032640;28;20517;-62
2021/12/29 01:24:21;;;;;;;7.30;1.05;;;;;;;;;;5032770;28;20045;-63
2021/12/29 01:26:49;;;;;;;6.50;1.20;;;;;;;;;;5032500;28;20053;-63
2021/12/29 01:29:16;;;;;;;4.75;1.20;;;;;;;;;;5032218;28;20495;-63
2021/12/29 01:31:44;;;;;;;7.18;1.38;;;;;;;;;;5032557;28;20061;-63
2021/12/29 01:34:12;;;;;;;3.85;0.98;;;;;;;;;;5032368;28;20057;-63
2021/12/29 01:36:40;;;;;;;6.18;1.95;;;;;;;;;;5032569;28;20056;-63
2021/12/29 01:39:10;;;;;;;4.30;1.00;;;;;;;;;;5032020;28;20045;-63
2021/12/29 01:41:37;;;;;;;7.47;1.30;;;;;;;;;;5032507;28;20053;-63
2021/12/29 01:44:06;;;;;;;5.40;1.10;;;;;;;;;;5032283;28;20639;-63
2021/12/29 01:46:33;;;;;;;7.50;1.25;;;;;;;;;;5032442;28;20143;-63
2021/12/29 01:49:01;;;;;;;6.90;1.33;;;;;;;;;;5031875;28;20060;-63
2021/12/29 01:51:30;;;;;;;9.82;2.63;;;;;;;;;;5032241;28;20576;-63
2021/12/29 01:54:14;;;;;;;4.60;1.52;;;;;;;;;;5032089;28;20049;-63
2021/12/29 01:56:43;;;;;;;5.20;1.35;;;;;;;;;;5031337;28;20054;-63
2021/12/29 01:59:12;;;;;;;5.57;0.85;;;;;;;;;;5031990;28;20053;-63
2021/12/29 02:01:39;;;;;;;10.15;2.45;;;;;;;;;;5032040;28;20049;-63
2021/12/29 02:04:06;;;;;;;4.00;0.95;;;;;;;;;;5031953;28;20053;-63
2021/12/29 02:06:33;;;;;;;4.72;1.13;;;;;;;;;;5031969;28;20056;-63
2021/12/29 02:09:00;;;;;;;7.38;1.33;;;;;;;;;;5031700;28;20049;-63
2021/12/29 02:11:29;;;;;;;7.32;1.65;;;;;;;;;;5032030;28;20466;-63
2021/12/29 02:13:58;;;;;;;4.38;1.00;;;;;;;;;;5031966;28;20056;-63
2021/12/29 02:16:27;;;;;;;7.20;1.13;;;;;;;;;;5031820;28;20053;-62
2021/12/29 02:18:55;;;;;;;7.22;1.90;;;;;;;;;;5031870;28;20088;-63
2021/12/29 02:21:25;;;;;;;6.35;1.33;;;;;;;;;;5031920;28;20056;-63
2021/12/29 02:24:16;;;;;;;6.47;1.20;;;;;;;;;;5031690;28;20407;-63
2021/12/29 02:26:43;;;;;;;6.25;1.13;;;;;;;;;;5032025;28;20396;-63
2021/12/29 02:29:13;;;;;;;4.90;0.98;;;;;;;;;;5031682;28;20392;-63
2021/12/29 02:31:40;;;;;;;7.53;1.08;;;;;;;;;;5031712;28;20612;-62
2021/12/29 02:34:09;;;;;;;5.03;1.25;;;;;;;;;;5031598;28;20060;-63
2021/12/29 02:36:43;;;;;;;5.90;1.00;;;;;;;;;;5031698;28;20050;-63
2021/12/29 02:39:11;;;;;;;7.72;1.30;;;;;;;;;;5031706;28;20116;-63
2021/12/29 02:41:44;;;;;;;6.38;1.20;;;;;;;;;;5031581;28;20056;-63
2021/12/29 02:44:16;;;;;;;6.68;1.10;;;;;;;;;;5031451;28;20057;-63
2021/12/29 02:46:43;;;;;;;6.15;1.25;;;;;;;;;;5031826;28;20061;-63
2021/12/29 02:49:11;;;;;;;5.28;1.48;;;;;;;;;;5031349;28;20072;-63
2021/12/29 02:51:39;;;;;;;6.80;1.60;;;;;;;;;;5031526;28;20069;-63
2021/12/29 02:54:06;;;;;;;8.55;1.50;;;;;;;;;;5031505;28;20052;-63
2021/12/29 02:56:33;;;;;;;7.10;1.40;;;;;;;;;;5031359;28;20045;-63
2021/12/29 02:59:00;;;;;;;5.28;1.25;;;;;;;;;;5031451;28;20046;-63
2021/12/29 03:01:29;;;;;;;8.35;1.20;;;;;;;;;;5031620;28;20053;-62
2021/12/29 03:03:56;;;;;;;5.78;1.73;;;;;;;;;;5031707;28;20049;-62
2021/12/29 03:06:23;;;;;;;5.45;1.38;;;;;;;;;;5031868;28;20046;-63
2021/12/29 03:08:52;;;;;;;5.65;1.00;;;;;;;;;;5035114;28;20046;-63
2021/12/29 03:11:19;;;;;;;5.68;1.60;;;;;;;;;;5035157;28;20418;-63
2021/12/29 03:13:46;;;;;;;3.53;1.25;;;;;;;;;;5034897;28;20049;-63
2021/12/29 03:16:14;;;;;;;6.07;1.23;;;;;;;;;;5045983;22;20049;-60
2021/12/29 03:18:43;;;;;;;4.70;0.98;;;;;;;;;;5034505;28;20053;-60
2021/12/29 03:21:11;;;;;;;4.22;1.65;;;;;;;;;;5035135;28;20506;-59
2021/12/29 03:23:39;;;;;;;6.95;1.10;;;;;;;;;;5034716;28;20045;-60
2021/12/29 03:26:08;;;;;;;5.55;1.42;;;;;;;;;;5034864;28;20054;-61
2021/12/29 03:28:36;;;;;;;8.38;1.20;;;;;;;;;;5034542;28;20133;-60
2021/12/29 03:31:03;;;;;;;6.03;1.45;;;;;;;;;;5034724;28;20060;-61
2021/12/29 03:33:30;;;;;;;5.28;1.52;;;;;;;;;;5034665;28;20045;-62
2021/12/29 03:36:01;;;;;;;7.10;1.73;;;;;;;;;;5034521;28;20053;-61
2021/12/29 03:38:28;;;;;;;;;;;;;;;;;;5035067;28;20064;-61
2021/12/29 03:40:56;;;;;;;4.00;1.15;;;;;;;;;;5034590;28;19921;-61
2021/12/29 03:43:26;;;;;;;5.90;0.98;;;;;;;;;;5034433;28;20053;-60
2021/12/29 03:45:54;;;;;;;4.65;0.80;;;;;;;;;;5034398;28;20312;-61
2021/12/29 03:48:24;;;;;;;3.75;1.00;;;;;;;;;;5034109;28;20050;-61
2021/12/29 03:50:51;;;;;;;5.43;1.23;;;;;;;;;;5034375;28;20050;-61
2021/12/29 03:53:18;;;;;;;6.60;1.20;;;;;;;;;;5034180;28;20060;-60
2021/12/29 03:55:48;;;;;;;6.53;1.40;;;;;;;;;;5034155;28;20056;-61
2021/12/29 03:58:15;;;;;;;4.57;1.55;;;;;;;;;;5034332;28;20402;-61
2021/12/29 04:00:45;;;;;;;3.33;0.80;;;;;;;;;;5034071;28;20050;-61
2021/12/29 04:03:12;;;;;;;2.97;0.70;;;;;;;;;;5033965;28;20056;-61
2021/12/29 04:05:39;;;;;;;3.58;0.80;;;;;;;;;;5034164;28;20054;-60
2021/12/29 04:08:06;;;;;;;2.53;0.85;;;;;;;;;;5033865;28;20053;-60
2021/12/29 04:10:34;;;;;;;4.50;1.00;;;;;;;;;;5034008;28;20441;-61
2021/12/29 04:13:02;;;;;;;5.22;1.00;;;;;;;;;;5033919;28;20403;-60
2021/12/29 04:15:29;;;;;;;3.33;0.70;;;;;;;;;;5033777;28;20490;-60
2021/12/29 04:17:59;;;;;;;3.95;0.90;;;;;;;;;;5032968;28;20053;-58
2021/12/29 04:23:13;;;;;;;3.67;0.93;;;;;;;;;;5033862;28;20429;-59
2021/12/29 04:25:44;;;;;;;3.53;0.95;;;;;;;;;;5033684;28;20046;-60
2021/12/29 04:28:15;;;;;;;5.72;1.60;;;;;;;;;;5033645;28;20412;-60
2021/12/29 04:30:42;;;;;;;;;;;;;;;;;;5033992;28;20058;-60
2021/12/29 04:33:10;;;;;;;3.90;0.80;;;;;;;;;;5033599;28;19925;-59
2021/12/29 04:35:37;;;;;;;4.63;0.88;;;;;;;;;;5033474;28;20056;-60
2021/12/29 04:38:05;;;;;;;5.32;1.25;;;;;;;;;;5033317;28;20055;-60
2021/12/29 04:40:32;;;;;;;4.10;0.90;;;;;;;;;;5033255;28;20045;-59
2021/12/29 04:42:59;;;;;;;4.78;0.82;;;;;;;;;;5033716;28;20056;-60
2021/12/29 04:45:26;;;;;;;4.80;0.90;;;;;;;;;;5033332;28;20046;-59
2021/12/29 04:47:53;;;;;;;5.30;1.15;;;;;;;;;;5033173;28;20049;-59
2021/12/29 04:50:26;;;;;;;4.03;0.80;;;;;;;;;;5033347;28;20056;-59
2021/12/29 04:52:55;;;;;;;4.82;1.05;;;;;;;;;;5033283;28;20112;-60
2021/12/29 04:55:22;;;;;;;3.70;0.82;;;;;;;;;;5032988;28;20053;-59
2021/12/29 04:57:49;;;;;;;4.78;1.15;;;;;;;;;;5032909;28;20438;-61
2021/12/29 05:00:20;;;;;;;4.95;1.15;;;;;;;;;;5032971;28;20052;-60
2021/12/29 05:02:48;;;;;;;4.50;0.90;;;;;;;;;;5033242;28;20089;-61
2021/12/29 05:05:23;;;;;;;3.53;0.80;;;;;;;;;;5032968;28;20057;-59
2021/12/29 05:10:36;;;;;;;5.03;0.80;;;;;;;;;;5033037;28;20428;-60
2021/12/29 05:13:03;;;;;;;2.20;0.60;;;;;;;;;;5032787;28;20091;-60
2021/12/29 05:15:30;;;;;;;4.57;1.55;;;;;;;;;;5032787;28;20308;-60
2021/12/29 05:17:58;;;;;;;2.45;0.60;;;;;;;;;;5032441;28;20054;-60
2021/12/29 05:20:27;;;;;;;7.72;2.55;;;;;;;;;;5032953;28;20395;-60
2021/12/29 05:22:56;;;;;;;2.50;0.75;;;;;;;;;;5032953;28;20721;-60
2021/12/29 05:25:23;;;;;;;4.95;1.00;;;;;;;;;;5032699;28;20057;-60
2021/12/29 05:27:51;;;;;;;3.05;0.80;;;;;;;;;;5032495;28;20479;-61
2021/12/29 05:30:18;;;;;;;1.40;0.80;;;;;;;;;;5032708;28;20167;-61
2021/12/29 05:32:45;;;;;;;3.47;0.90;;;;;;;;;;5032350;28;20410;-60
2021/12/29 05:35:12;;;;;;;6.65;1.13;;;;;;;;;;5032862;28;20046;-59
2021/12/29 05:37:40;;;;;;;5.47;1.50;;;;;;;;;;5032456;28;20053;-60
2021/12/29 05:40:10;;;;;;;3.65;0.90;;;;;;;;;;5032482;28;20052;-59
2021/12/29 05:42:37;;;;;;;2.53;0.90;;;;;;;;;;5032572;28;20057;-59
2021/12/29 05:45:06;;;;;;;5.80;1.00;;;;;;;;;;5032252;28;20060;-59
2021/12/29 05:47:33;;;;;;;4.63;0.80;;;;;;;;;;5032316;28;20068;-59
2021/12/29 05:50:00;;;;;;;3.42;0.90;;;;;;;;;;5032228;28;20138;-59
2021/12/29 05:52:28;;;;;;;4.03;0.90;;;;;;;;;;5032653;28;20057;-59
2021/12/29 05:54:55;;;;;;;3.38;1.35;;;;;;;;;;5032767;28;20403;-59
2021/12/29 05:57:23;;;;;;;2.85;0.73;;;;;;;;;;5032200;28;20053;-59
2021/12/29 05:59:50;;;;;;;2.65;1.30;;;;;;;;;;5032099;28;20483;-58
2021/12/29 06:02:17;;;;;;;4.30;0.90;;;;;;;;;;5032263;28;20049;-59
2021/12/29 06:04:44;;;;;;;5.70;1.10;;;;;;;;;;5032219;28;20506;-59
2021/12/29 06:07:11;;;;;;;7.40;0.95;;;;;;;;;;5032058;28;20053;-59
2021/12/29 06:09:38;;;;;;;2.95;0.80;;;;;;;;;;5032007;28;20144;-60
2021/12/29 06:12:06;;;;;;;4.63;1.00;;;;;;;;;;5032068;28;20058;-59
2021/12/29 06:14:35;;;;;;;5.32;0.95;;;;;;;;;;5032158;28;20059;-59
2021/12/29 06:17:02;;;;;;;4.82;1.35;;;;;;;;;;5031910;28;20057;-59
2021/12/29 06:19:30;;;;;;;6.10;1.65;;;;;;;;;;5032225;28;20045;-60
2021/12/29 06:21:57;;;;;;;4.97;1.35;;;;;;;;;;5032059;28;20053;-60
2021/12/29 06:24:24;;;;;;;4.43;0.98;;;;;;;;;;5031939;28;20057;-59
2021/12/29 06:26:51;;;;;;;7.60;1.10;;;;;;;;;;5031925;28;20059;-59
2021/12/29 06:29:18;;;;;;;5.97;1.05;;;;;;;;;;5032031;28;20049;-60
2021/12/29 06:31:48;;;;;;;3.90;1.10;;;;;;;;;;5032255;28;20418;-60
2021/12/29 06:34:15;;;;;;;3.78;0.90;;;;;;;;;;5032104;28;20057;-61
2021/12/29 06:36:42;;;;;;;2.65;0.85;;;;;;;;;;5031735;28;20060;-60
2021/12/29 06:39:09;;;;;;;4.65;1.05;;;;;;;;;;5031794;28;20049;-61
2021/12/29 06:41:36;;;;;;;5.20;1.17;;;;;;;;;;5032374;28;20049;-60
2021/12/29 06:44:03;;;;;;;3.05;0.95;;;;;;;;;;5036117;28;20132;-60
2021/12/29 06:46:30;;;;;;;7.25;1.40;;;;;;;;;;5035483;28;20054;-59
2021/12/29 06:48:59;;;;;;;3.50;0.90;;;;;;;;;;5035646;28;20053;-60
2021/12/29 06:51:26;;;;;;;5.65;0.82;;;;;;;;;;5035957;28;20519;-60
2021/12/29 06:53:53;;;;;;;3.35;0.55;;;;;;;;;;5035423;28;20502;-59
2021/12/29 06:56:20;;;;;;;2.75;1.38;;;;;;;;;;5035458;28;20556;-60
2021/12/29 06:58:47;;;;;;;2.10;0.77;;;;;;;;;;5035476;28;20052;-60
2021/12/29 07:01:16;;;;;;;3.65;1.10;;;;;;;;;;5035556;28;20049;-60
2021/12/29 07:03:43;;;;;;;2.90;0.80;;;;;;;;;;5035574;28;20061;-59
2021/12/29 07:06:11;;;;;;;3.08;0.80;;;;;;;;;;5035313;28;20050;-60
2021/12/29 07:08:40;;;;;;;3.13;0.70;;;;;;;;;;5035308;28;20486;-59
2021/12/29 07:11:07;;;;;;;4.10;1.00;;;;;;;;;;5035545;28;20064;-59
2021/12/29 07:13:34;;;;;;;6.38;1.08;;;;;;;;;;5035292;28;20053;-60
2021/12/29 07:16:01;;;;;;;3.05;1.00;;;;;;;;;;5035024;28;20049;-59
2021/12/29 07:18:28;;;;;;;3.92;0.65;;;;;;;;;;5035027;28;20069;-59
2021/12/29 07:20:55;;;;;;;5.40;1.58;;;;;;;;;;5035012;28;20056;-61
2021/12/29 07:23:23;;;;;;;4.40;0.90;;;;;;;;;;5034889;28;20046;-60
2021/12/29 07:25:50;;;;;;;3.28;1.00;;;;;;;;;;5035348;28;20506;-60
2021/12/29 07:28:17;;;;;;;5.50;1.10;;;;;;;;;;5034900;28;20061;-61
2021/12/29 07:30:44;;;;;;;4.28;1.08;;;;;;;;;;5034936;28;20054;-60
2021/12/29 07:33:11;;;;;;;3.95;1.23;;;;;;;;;;5034902;28;20418;-61
2021/12/29 07:35:38;;;;;;;5.88;1.00;;;;;;;;;;5034840;28;20049;-60
2021/12/29 07:38:05;;;;;;;3.55;0.90;;;;;;;;;;5034977;28;20051;-61
2021/12/29 07:40:34;;;;;;;4.38;1.20;;;;;;;;;;5034900;28;20053;-59
2021/12/29 07:43:03;;;;;;;3.65;0.82;;;;;;;;;;5034739;28;20061;-59
2021/12/29 07:45:30;;;;;;;2.38;0.88;;;;;;;;;;5034478;28;20053;-59
2021/12/29 07:47:58;;;;;;;5.18;2.25;;;;;;;;;;5034503;28;20057;-59
2021/12/29 07:50:25;;;;;;;3.28;1.00;;;;;;;;;;5034518;28;20060;-59
2021/12/29 07:52:52;;;;;;;3.70;1.10;;;;;;;;;;5034859;28;20053;-61
2021/12/29 07:55:20;;;;;;;2.63;0.63;;;;;;;;;;5034435;28;20132;-60
2021/12/29 07:57:49;;;;;;;3.90;0.70;;;;;;;;;;5034291;28;20059;-61
2021/12/29 08:00:17;;;;;;;4.03;1.00;;;;;;;;;;5035428;28;20059;-61
2021/12/29 08:02:47;;;;;;;3.85;0.80;;;;;;;;;;5035255;28;20053;-60
2021/12/29 08:05:14;;;;;;;3.08;0.95;;;;;;;;;;5035018;28;20585;-58
2021/12/29 08:07:41;;;;;;;3.05;0.73;;;;;;;;;;5034534;28;20533;-60
2021/12/29 08:10:10;;;;;;;4.90;1.17;;;;;;;;;;5034301;28;20411;-58
2021/12/29 08:12:37;;;;;;;6.68;1.13;;;;;;;;;;5034506;28;20049;-60
2021/12/29 08:15:06;;;;;;;3.33;0.93;;;;;;;;;;5034464;28;20068;-60
2021/12/29 08:17:33;;;;;;;4.38;1.02;;;;;;;;;;5034410;28;20076;-59
2021/12/29 08:20:01;;;;;;;2.60;0.80;;;;;;;;;;5034197;28;20053;-60
2021/12/29 08:22:28;;;;;;;4.00;1.20;;;;;;;;;;5034307;28;20045;-59
2021/12/29 08:24:55;;;;;;;5.28;0.98;;;;;;;;;;5034282;28;20056;-60
2021/12/29 08:27:22;;;;;;;4.22;1.10;;;;;;;;;;5035581;28;20080;-59
2021/12/29 08:29:49;;;;;;;4.43;0.98;;;;;;;;;;5034557;28;20172;-61
2021/12/29 08:32:18;;;;;;;4.05;1.10;;;;;;;;;;5035459;28;20410;-60
2021/12/29 08:34:45;;;;;;;2.50;0.70;;;;;;;;;;5034636;28;20053;-61
2021/12/29 08:37:13;;;;;;;5.63;1.10;;;;;;;;;;5035627;28;20479;-62
2021/12/29 08:39:40;;;;;;;2.63;0.90;;;;;;;;;;5033857;28;20410;-60
2021/12/29 08:42:07;;;;;;;4.00;1.75;;;;;;;;;;5034132;28;20536;-62
2021/12/29 08:44:34;;;;;;;2.30;0.98;;;;;;;;;;5033968;28;20049;-58
2021/12/29 08:47:01;;;;;;;5.18;1.27;;;;;;;;;;5034487;28;20067;-62
2021/12/29 08:49:29;;;;;;;2.80;0.70;;;;;;;;;;5034371;28;20050;-60
2021/12/29 08:51:57;;;;;;;13.30;1.00;;;;;;;;;;5034095;28;20136;-59
2021/12/29 08:54:24;;;;;;;3.22;0.88;;;;;;;;;;5033991;28;20049;-60
2021/12/29 08:56:53;;;;;;;3.67;1.08;;;;;;;;;;5034067;28;20056;-60
2021/12/29 08:59:21;;;;;;;2.17;1.10;;;;;;;;;;5034969;28;20095;-59
2021/12/29 09:01:48;;;;;;;2.45;0.85;;;;;;;;;;5034604;28;20049;-58
2021/12/29 09:04:16;;;;;;;5.03;1.23;;;;;;;;;;5033408;28;20049;-57
2021/12/29 09:06:45;;;;;;;3.50;0.90;;;;;;;;;;5033871;28;20133;-57
2021/12/29 09:09:12;;;;;;;2.47;0.77;;;;;;;;;;5033802;28;20053;-55
2021/12/29 09:11:40;;;;;;;3.90;0.70;;;;;;;;;;5033817;28;20395;-59
2021/12/29 09:14:07;;;;;;;2.40;0.90;;;;;;;;;;5034321;28;20457;-60
2021/12/29 09:16:34;;;;;;;2.58;0.98;;;;;;;;;;5045151;22;20391;-63
2021/12/29 09:19:01;;;;;;;2.53;1.23;;;;;;;;;;5032591;28;20059;-64
2021/12/29 09:21:29;;;;;;;2.47;0.82;;;;;;;;;;5032773;28;20152;-62
2021/12/29 09:23:58;;;;;;;4.60;0.90;;;;;;;;;;5032544;28;20056;-63
2021/12/29 09:26:25;;;;;;;3.78;0.70;;;;;;;;;;5032789;28;20045;-63
2021/12/29 09:28:52;;;;;;;5.55;0.95;;;;;;;;;;5032533;28;20053;-63
2021/12/29 09:31:20;;;;;;;2.47;0.80;;;;;;;;;;5032474;28;20128;-63
2021/12/29 09:33:47;;;;;;;5.00;1.00;;;;;;;;;;5032381;28;20053;-63
2021/12/29 09:36:15;;;;;;;4.15;1.10;;;;;;;;;;5032476;28;20049;-63
2021/12/29 09:38:42;;;;;;;3.63;1.02;;;;;;;;;;5032025;28;20128;-63
2021/12/29 09:41:14;;;;;;;3.25;0.85;;;;;;;;;;5032449;28;20045;-64
2021/12/29 09:43:41;;;;;;;3.10;1.00;;;;;;;;;;5032235;28;20050;-64
2021/12/29 09:46:09;;;;;;;6.22;1.15;;;;;;;;;;5032358;28;20053;-64
2021/12/29 09:48:36;;;;;;;2.55;0.90;;;;;;;;;;5032252;28;20414;-64
2021/12/29 09:51:05;;;;;;;4.15;0.90;;;;;;;;;;5032781;28;20392;-64
2021/12/29 09:53:33;;;;;;;5.15;1.00;;;;;;;;;;5032425;28;20050;-64
2021/12/29 09:56:00;;;;;;;4.03;0.73;;;;;;;;;;5032115;28;20092;-64
2021/12/29 09:58:28;;;;;;;4.55;0.95;;;;;;;;;;5032075;28;20049;-64
2021/12/29 10:00:57;;;;;;;3.90;0.80;;;;;;;;;;5032089;28;20049;-65
2021/12/29 10:03:26;;;;;;;6.70;0.90;;;;;;;;;;5031966;28;20059;-64
2021/12/29 10:05:55;;;;;;;3.05;0.85;;;;;;;;;;5032043;28;20490;-63
2021/12/29 10:08:26;;;;;;;3.15;0.80;;;;;;;;;;5031912;28;20057;-64
2021/12/29 10:10:55;;;;;;;4.63;1.25;;;;;;;;;;5031994;28;20415;-62
2021/12/29 10:13:23;;;;;;;3.45;1.20;;;;;;;;;;5001461;28;20054;-65
2021/12/29 10:15:53;;;;;;;4.25;1.17;;;;;;;;;;4992574;28;20101;-64
2021/12/29 10:18:22;;;;;;;4.88;1.17;;;;;;;;;;4996097;28;20054;-64
2021/12/29 10:20:51;;;;;;;7.10;1.42;;;;;;;;;;4996825;28;20575;-64
2021/12/29 10:23:22;;;;;;;3.45;0.80;;;;;;;;;;4996632;28;20054;-64
2021/12/29 10:25:50;;;;;;;6.22;1.35;;;;;;;;;;4996689;28;20525;-65
2021/12/29 10:28:26;;;;;;;5.68;1.15;;;;;;;;;;4996423;28;20148;-64
2021/12/29 10:31:04;;;;;;;4.03;1.33;;;;;;;;;;4996491;28;20054;-65
2021/12/29 10:33:34;;;;;;;5.75;1.48;;;;;;;;;;4996474;28;20057;-64
2021/12/29 10:36:19;;;;;;;6.47;1.23;;;;;;;;;;4996361;28;20055;-65
2021/12/29 10:38:50;;;;;;;6.13;1.33;;;;;;;;;;4996206;28;20050;-64
2021/12/29 10:41:17;;;;;;;4.82;1.33;;;;;;;;;;4996342;28;20411;-64
2021/12/29 10:43:52;;;;;;;5.45;1.10;;;;;;;;;;4996241;28;20046;-64
2021/12/29 10:46:22;;;;;;;7.00;1.25;;;;;;;;;;4996470;28;20054;-63
2021/12/29 10:48:50;;;;;;;5.25;1.10;;;;;;;;;;4996034;28;20137;-65
2021/12/29 10:51:18;;;;;;;5.07;1.23;;;;;;;;;;4996247;28;20098;-64
2021/12/29 10:53:45;;;;;;;3.92;1.02;;;;;;;;;;4995971;28;20059;-64
2021/12/29 10:56:21;;;;;;;3.88;1.45;;;;;;;;;;4996018;28;20069;-62
2021/12/29 10:58:48;;;;;;;6.22;1.30;;;;;;;;;;4995748;28;20058;-62
2021/12/29 11:01:16;;;;;;;7.30;1.27;;;;;;;;;;4995948;28;20050;-63
2021/12/29 11:03:48;;;;;;;3.80;0.98;;;;;;;;;;4996056;28;20113;-63
2021/12/29 11:06:18;;;;;;;6.05;1.30;;;;;;;;;;4995979;28;20053;-63
2021/12/29 11:08:50;;;;;;;5.00;1.38;;;;;;;;;;4995830;28;20104;-63
2021/12/29 11:11:18;;;;;;;2.42;1.00;;;;;;;;;;4996059;28;20635;-64
2021/12/29 11:13:46;;;;;;;5.78;0.90;;;;;;;;;;4995781;28;20050;-66
2021/12/29 11:16:13;;;;;;;2.83;1.00;;;;;;;;;;4995540;28;20089;-66
2021/12/29 11:18:43;;;;;;;4.05;1.20;;;;;;;;;;4995353;28;20078;-65
2021/12/29 11:21:15;;;;;;;2.85;0.85;;;;;;;;;;4995629;28;20054;-65
2021/12/29 11:23:42;;;;;;;4.07;0.95;;;;;;;;;;4995455;28;20104;-67
2021/12/29 11:26:13;;;;;;;4.45;1.15;;;;;;;;;;4995541;28;20144;-70
2021/12/29 11:28:40;;;;;;;4.35;1.15;;;;;;;;;;4995133;28;20129;-63
2021/12/29 11:31:11;;;;;;;6.03;1.38;;;;;;;;;;4995592;28;20452;-64
2021/12/29 11:33:38;;;;;;;9.52;2.40;;;;;;;;;;4995734;28;20389;-66
2021/12/29 11:36:05;;;;;;;6.82;1.48;;;;;;;;;;4995506;28;20133;-64
2021/12/29 11:38:35;;;;;;;4.18;1.08;;;;;;;;;;4995320;28;20480;-64
2021/12/29 11:41:04;;;;;;;5.07;1.10;;;;;;;;;;4995721;28;20046;-64
2021/12/29 11:43:31;;;;;;;6.00;1.63;;;;;;;;;;4995412;28;20057;-64
2021/12/29 11:45:58;;;;;;;4.70;1.33;;;;;;;;;;4995350;28;20050;-64
2021/12/29 11:48:26;;;;;;;4.88;1.17;;;;;;;;;;4995449;28;20101;-66
2021/12/29 11:50:55;;;;;;;10.32;1.42;;;;;;;;;;4995390;28;20079;-65
2021/12/29 11:53:31;;;;;;;3.78;0.93;;;;;;;;;;4995310;28;20046;-65
2021/12/29 11:56:02;;;;;;;6.63;1.08;;;;;;;;;;4994974;28;20137;-64
2021/12/29 11:58:30;;;;;;;;;;;;;;;;;;4995195;28;20051;-65
2021/12/29 12:01:07;;;;;;;6.40;1.50;;;;;;;;;;4994887;28;20386;-64
2021/12/29 12:03:43;;;;;;;6.30;1.35;;;;;;;;;;4995000;28;20065;-63
2021/12/29 12:06:25;;;;;;;8.43;1.63;;;;;;;;;;4995078;28;20050;-64
2021/12/29 12:09:09;;;;;;;10.07;2.17;;;;;;;;;;4994658;28;20046;-64
2021/12/29 12:11:39;;;;;;;8.63;2.17;;;;;;;;;;4994957;28;20057;-64
2021/12/29 12:14:19;;;;;;;9.98;2.15;;;;;;;;;;4994843;28;20050;-64
2021/12/29 12:16:55;;;;;;;7.82;1.90;;;;;;;;;;4994796;28;20061;-64
2021/12/29 12:19:24;;;;;;;7.47;1.40;;;;;;;;;;4994949;28;20053;-65
2021/12/29 12:22:04;;;;;;;13.20;3.75;;;;;;;;;;4994640;28;20054;-65
2021/12/29 12:24:32;;;;;;;3.80;1.30;;;;;;;;;;4997585;28;20581;-64
2021/12/29 12:27:03;;;;;;;8.15;1.83;;;;;;;;;;5005121;28;20133;-65
2021/12/29 12:29:32;;;;;;;9.52;1.90;;;;;;;;;;5003612;28;20056;-63
2021/12/29 12:32:02;;;;;;;6.20;1.73;;;;;;;;;;5003007;28;20502;-64
2021/12/29 12:34:29;;;;;;;6.10;1.50;;;;;;;;;;5004033;28;20420;-64
2021/12/29 12:36:56;;;;;;;4.78;2.00;;;;;;;;;;5003231;28;20491;-64
2021/12/29 12:39:23;;;;;;;7.55;1.75;;;;;;;;;;5001227;28;20050;-65
2021/12/29 12:41:53;;;;;;;6.10;1.42;;;;;;;;;;5012683;28;20104;-63
2021/12/29 12:44:32;;;;;;;6.50;1.67;;;;;;;;;;4997283;28;20057;-65
2021/12/29 12:47:09;;;;;;;10.18;2.22;;;;;;;;;;4997154;28;20077;-65
2021/12/29 12:49:43;;;;;;;10.80;1.70;;;;;;;;;;4998376;28;20058;-64
2021/12/29 12:52:12;;;;;;;12.73;2.10;;;;;;;;;;5004437;28;20079;-64
2021/12/29 12:54:45;;;;;;;11.20;1.63;;;;;;;;;;5013999;28;20491;-65
2021/12/29 12:57:12;;;;;;;11.82;2.72;;;;;;;;;;5013859;28;20053;-65
2021/12/29 12:59:42;;;;;;;10.00;3.25;;;;;;;;;;5009030;28;20054;-64
2021/12/29 13:02:15;;;;;;;10.07;2.20;;;;;;;;;;5003852;28;20057;-63
2021/12/29 13:05:00;;;;;;;6.97;1.60;;;;;;;;;;5009263;28;20063;-65
2021/12/29 13:07:27;;;;;;;8.05;2.03;;;;;;;;;;5013525;28;20057;-63
2021/12/29 13:09:54;;;;;;;8.43;2.67;;;;;;;;;;5013657;28;20050;-65
2021/12/29 13:12:26;;;;;;;10.93;3.95;;;;;;;;;;5013354;28;20053;-63
2021/12/29 13:15:00;;;;;;;7.70;2.10;;;;;;;;;;5013772;28;20491;-64
2021/12/29 13:17:28;;;;;;;6.97;1.85;;;;;;;;;;5014807;28;20046;-64
2021/12/29 13:19:56;;;;;;;7.10;2.22;;;;;;;;;;5015240;28;20050;-63
2021/12/29 13:22:27;;;;;;;9.55;1.90;;;;;;;;;;5009665;28;20042;-63
2021/12/29 13:24:54;;;;;;;6.88;1.77;;;;;;;;;;5008259;28;20054;-63
2021/12/29 13:27:22;;;;;;;6.55;1.67;;;;;;;;;;4998515;28;20084;-63
2021/12/29 13:30:02;;;;;;;6.75;2.97;;;;;;;;;;4994727;28;20050;-63
2021/12/29 13:32:29;;;;;;;7.72;1.98;;;;;;;;;;4996555;28;20068;-64
2021/12/29 13:35:02;;;;;;;7.75;2.35;;;;;;;;;;4998135;28;20050;-64
2021/12/29 13:37:30;;;;;;;8.98;2.03;;;;;;;;;;5000058;28;20379;-65
2021/12/29 13:39:57;;;;;;;10.68;2.13;;;;;;;;;;5012055;28;20108;-64
2021/12/29 13:42:25;;;;;;;5.90;1.50;;;;;;;;;;5012853;28;20056;-64
2021/12/29 13:44:58;;;;;;;6.78;1.65;;;;;;;;;;5013067;28;20061;-63
2021/12/29 13:47:26;;;;;;;3.80;1.35;;;;;;;;;;5012927;28;20054;-63
2021/12/29 13:49:54;;;;;;;7.50;1.55;;;;;;;;;;5013010;28;20050;-63
2021/12/29 13:52:21;;;;;;;3.30;1.10;;;;;;;;;;5012722;28;20057;-64
2021/12/29 13:54:48;;;;;;;2.85;0.98;;;;;;;;;;5012891;28;20402;-64
2021/12/29 13:57:15;;;;;;;4.13;1.10;;;;;;;;;;5012674;28;20050;-64
2021/12/29 13:59:42;;;;;;;2.78;0.82;;;;;;;;;;5012472;28;20050;-65
2021/12/29 14:02:09;;;;;;;3.40;0.73;;;;;;;;;;5012846;28;20045;-65
2021/12/29 14:04:42;;;;;;;2.17;0.88;;;;;;;;;;5012730;28;20050;-64
2021/12/29 14:07:12;;;;;;;3.45;0.90;;;;;;;;;;5012474;28;20065;-64
2021/12/29 14:09:41;;;;;;;4.10;1.48;;;;;;;;;;5012069;28;20053;-64
2021/12/29 14:12:10;;;;;;;4.05;0.90;;;;;;;;;;5012607;28;20050;-64
2021/12/29 14:14:38;;;;;;;3.95;1.10;;;;;;;;;;5012441;28;20050;-64
2021/12/29 14:17:06;;;;;;;7.70;2.67;;;;;;;;;;5012495;28;20046;-64
2021/12/29 14:19:34;;;;;;;5.18;1.20;;;;;;;;;;5012030;28;20066;-64
2021/12/29 14:22:02;;;;;;;6.28;1.98;;;;;;;;;;5012173;28;20100;-65
2021/12/29 14:24:29;;;;;;;4.25;1.20;;;;;;;;;;5012389;28;20049;-65
2021/12/29 14:26:59;;;;;;;3.83;1.25;;;;;;;;;;5012450;28;20050;-64
2021/12/29 14:29:33;;;;;;;6.17;2.43;;;;;;;;;;5012187;28;20050;-65
2021/12/29 14:32:04;;;;;;;3.85;1.35;;;;;;;;;;5012586;28;20496;-65
2021/12/29 14:34:43;;;;;;;3.53;1.30;;;;;;;;;;5012213;28;20057;-62
2021/12/29 14:37:14;;;;;;;4.43;1.50;;;;;;;;;;5012297;28;20054;-63
2021/12/29 14:39:42;;;;;;;4.30;1.58;;;;;;;;;;5012037;28;20057;-63
2021/12/29 14:42:12;;;;;;;3.88;1.30;;;;;;;;;;5012118;28;20061;-63
2021/12/29 14:44:40;;;;;;;9.38;2.60;;;;;;;;;;5012649;28;20116;-63
2021/12/29 14:47:10;;;;;;;6.28;1.35;;;;;;;;;;5012359;28;20046;-63
2021/12/29 14:49:39;;;;;;;5.10;1.17;;;;;;;;;;5012164;28;20054;-63
2021/12/29 14:52:07;;;;;;;5.10;1.70;;;;;;;;;;5012115;28;20056;-62
2021/12/29 14:54:38;;;;;;;3.38;1.10;;;;;;;;;;5012479;28;20057;-62
2021/12/29 14:57:05;;;;;;;;;;;;;;;;;;5012916;28;20050;-63